Time;durP1;ratioP1;P1;durP2;ratioP2;P2;SDS_P1;SDS_P2;PMS_P1;PMS_P2;Temp;Humidity;BMP_temperature;BMP_pressure;BME280_temperature;BME280_humidity;BME280_pressure;Samples;Min_cycle;Max_cycle;Signal;HPM_P1;HPM_P2
2022/02/02 00:04:46;;;;;;;29.73;8.03;;;8.70;99.90;;;;;;2610635;54;20438;-75
2022/02/02 00:09:54;;;;;;;36.03;8.70;;;8.70;99.90;;;;;;2612036;47;20469;-75
2022/02/02 00:12:36;;;;;;;22.40;7.63;;;8.70;99.90;;;;;;2611956;54;20570;-75
2022/02/02 00:15:31;;;;;;;17.60;5.47;;;8.70;99.90;;;;;;2611869;51;20407;-75
2022/02/02 00:18:06;;;;;;;21.23;7.13;;;8.70;99.90;;;;;;2613328;54;20435;-76
2022/02/02 00:20:42;;;;;;;21.00;9.20;;;8.70;99.90;;;;;;2614058;31;20872;-75
2022/02/02 00:23:15;;;;;;;24.63;7.60;;;8.60;99.90;;;;;;2611293;54;20428;-75
2022/02/02 00:25:49;;;;;;;16.23;5.40;;;8.70;99.90;;;;;;2613106;54;20433;-76
2022/02/02 00:28:18;;;;;;;26.57;5.97;;;8.60;99.90;;;;;;2612445;54;20415;-75
2022/02/02 00:30:44;;;;;;;20.30;6.47;;;8.60;99.90;;;;;;2612116;47;20411;-75
2022/02/02 00:35:42;;;;;;;15.57;4.00;;;8.50;99.90;;;;;;2612319;54;20162;-75
2022/02/02 00:38:08;;;;;;;31.07;8.17;;;8.40;99.90;;;;;;2612570;54;20387;-75
2022/02/02 00:40:34;;;;;;;21.13;6.50;;;8.40;99.90;;;;;;2613699;39;20912;-76
2022/02/02 00:43:00;;;;;;;22.10;6.87;;;8.40;99.90;;;;;;2611864;54;20667;-75
2022/02/02 00:45:32;;;;;;;16.93;4.40;;;8.40;99.90;;;;;;2611612;54;20494;-75
2022/02/02 00:48:01;;;;;;;20.50;6.13;;;8.30;99.90;;;;;;2612254;54;20190;-79
2022/02/02 00:50:27;;;;;;;20.93;7.07;;;8.20;99.90;;;;;;2613378;39;20946;-76
2022/02/02 00:52:54;;;;;;;15.43;4.77;;;8.10;99.90;;;;;;2611529;46;20455;-75
2022/02/02 00:55:20;;;;;;;24.10;6.57;;;8.10;99.90;;;;;;2613708;54;20447;-75
2022/02/02 00:57:46;;;;;;;15.47;4.63;;;8.00;99.90;;;;;;2612421;54;20971;-75
2022/02/02 01:00:13;;;;;;;15.30;4.70;;;8.00;99.90;;;;;;2612725;54;20404;-74
2022/02/02 01:02:39;;;;;;;16.03;5.20;;;8.00;99.90;;;;;;2610046;51;20159;-75
2022/02/02 01:05:05;;;;;;;32.43;7.00;;;8.00;99.90;;;;;;2610856;47;20463;-78
2022/02/02 01:10:34;;;;;;;23.03;5.73;;;8.10;99.90;;;;;;2611610;54;20478;-75
2022/02/02 01:13:08;;;;;;;15.60;4.93;;;8.10;99.90;;;;;;2612253;54;20533;-75
2022/02/02 01:28:33;;;;;;;27.07;6.40;;;8.00;99.90;;;;;;2610141;46;20427;-75
2022/02/02 01:31:00;;;;;;;12.20;6.47;;;8.00;99.90;;;;;;2613474;54;20412;-77
2022/02/02 01:33:27;;;;;;;30.87;9.00;;;8.00;99.90;;;;;;2610786;54;20415;-76
2022/02/02 01:35:53;;;;;;;34.90;7.03;;;8.00;99.90;;;;;;2611810;54;20421;-75
2022/02/02 01:38:21;;;;;;;13.50;5.67;;;8.00;99.90;;;;;;2613383;54;20523;-76
2022/02/02 01:40:52;;;;;;;11.20;4.77;;;8.00;99.90;;;;;;2612544;54;20402;-76
2022/02/02 01:43:27;;;;;;;20.87;5.27;;;7.90;99.90;;;;;;2610958;39;21022;-76
2022/02/02 01:46:00;;;;;;;21.40;7.43;;;8.00;99.90;;;;;;2610345;54;21165;-75
2022/02/02 01:48:39;;;;;;;19.53;5.60;;;8.00;99.90;;;;;;2611933;54;20412;-76
2022/02/02 01:56:16;;;;;;;11.30;2.67;;;8.00;99.90;;;;;;2612369;54;20443;-76
2022/02/02 01:59:05;;;;;;;29.17;6.40;;;8.00;99.90;;;;;;2611621;54;20430;-75
2022/02/02 02:01:31;;;;;;;12.40;3.80;;;8.00;99.90;;;;;;2610593;54;20411;-75
2022/02/02 02:03:58;;;;;;;18.70;6.73;;;8.00;99.90;;;;;;2612124;54;20998;-75
2022/02/02 02:06:25;;;;;;;17.00;5.70;;;8.00;99.90;;;;;;2613781;54;20449;-75
2022/02/02 02:08:51;;;;;;;33.10;8.07;;;8.00;99.90;;;;;;2612628;39;20923;-76
2022/02/02 02:11:19;;;;;;;18.93;6.03;;;8.00;99.90;;;;;;2611735;47;20436;-75
2022/02/02 02:16:14;;;;;;;31.07;8.17;;;8.00;99.90;;;;;;2611444;39;20543;-75
2022/02/02 02:18:40;;;;;;;19.00;6.53;;;8.10;99.90;;;;;;2613560;54;20407;-75
2022/02/02 02:21:11;;;;;;;44.93;7.70;;;8.00;99.90;;;;;;2611900;46;20450;-74
2022/02/02 02:23:37;;;;;;;27.27;7.53;;;8.00;99.90;;;;;;2611222;49;20178;-75
2022/02/02 02:26:05;;;;;;;26.33;9.07;;;8.00;99.90;;;;;;2613603;54;20505;-75
2022/02/02 02:28:52;;;;;;;29.93;8.30;;;8.00;99.90;;;;;;2611882;39;21222;-75
2022/02/02 02:39:55;;;;;;;28.63;7.63;;;7.90;99.90;;;;;;2612432;54;20138;-76
2022/02/02 02:56:06;;;;;;;23.90;5.47;;;7.90;99.90;;;;;;2612459;54;20416;-75
2022/02/02 03:30:57;;;;;;;31.50;9.70;;;7.60;99.90;;;;;;2610620;47;20419;-75
2022/02/02 03:55:05;;;;;;;24.60;7.47;;;7.50;99.90;;;;;;2613771;54;20403;-75
2022/02/02 04:00:35;;;;;;;31.10;8.03;;;7.50;99.90;;;;;;2611872;47;20455;-75
2022/02/02 04:05:49;;;;;;;33.50;8.17;;;7.50;99.90;;;;;;2613305;54;20404;-75
2022/02/02 04:08:32;;;;;;;19.73;8.87;;;7.50;99.90;;;;;;2613466;39;20930;-75
2022/02/02 04:11:00;;;;;;;22.00;7.20;;;7.50;99.90;;;;;;2610238;39;20507;-75
2022/02/02 05:12:45;;;;;;;26.83;7.47;;;7.70;99.90;;;;;;2612879;54;20542;-75
2022/02/02 05:15:47;;;;;;;23.97;7.43;;;7.60;99.90;;;;;;2611010;54;20460;-75
2022/02/02 05:52:37;;;;;;;38.47;8.47;;;7.90;99.90;;;;;;2610555;54;20976;-75
2022/02/02 05:55:04;;;;;;;23.73;6.40;;;7.80;99.90;;;;;;2611545;54;20459;-76
2022/02/02 05:57:32;;;;;;;26.33;7.03;;;7.90;99.90;;;;;;2611207;54;20143;-76
2022/02/02 05:59:59;;;;;;;8.93;3.60;;;7.90;99.90;;;;;;2612287;54;20486;-75
2022/02/02 06:02:42;;;;;;;17.20;5.37;;;7.80;99.90;;;;;;2606662;54;20520;-75
2022/02/02 06:05:09;;;;;;;12.30;4.20;;;7.80;99.90;;;;;;2609278;51;20500;-75
2022/02/02 06:07:37;;;;;;;14.47;4.83;;;7.80;99.90;;;;;;2608709;54;20412;-77
2022/02/02 06:10:06;;;;;;;17.53;4.67;;;7.80;99.90;;;;;;2608240;39;20844;-74
2022/02/02 06:12:33;;;;;;;7.23;2.60;;;7.80;99.90;;;;;;2609260;31;21047;-75
2022/02/02 06:15:00;;;;;;;12.50;3.20;;;7.70;99.90;;;;;;2607768;54;20412;-75
2022/02/02 06:17:29;;;;;;;11.33;4.03;;;7.80;99.90;;;;;;2609963;54;20427;-81
2022/02/02 06:19:57;;;;;;;11.43;3.30;;;7.70;99.90;;;;;;2610019;47;20428;-76
2022/02/02 06:22:31;;;;;;;15.47;3.17;;;7.70;99.90;;;;;;2607409;46;20464;-76
2022/02/02 06:25:04;;;;;;;9.87;2.77;;;7.70;99.90;;;;;;2609152;47;20515;-77
2022/02/02 06:27:34;;;;;;;11.70;4.47;;;7.70;99.90;;;;;;2610128;47;20422;-75
2022/02/02 06:30:05;;;;;;;13.70;2.57;;;7.60;99.90;;;;;;2609342;54;20408;-76
2022/02/02 06:32:55;;;;;;;7.70;3.10;;;7.50;99.90;;;;;;2609900;51;20438;-75
2022/02/02 06:35:21;;;;;;;5.37;2.67;;;7.30;99.90;;;;;;2611267;54;20468;-75
2022/02/02 06:37:49;;;;;;;9.47;2.70;;;7.20;99.90;;;;;;2609972;54;20404;-75
2022/02/02 06:40:17;;;;;;;17.33;3.83;;;7.20;99.90;;;;;;2609024;54;20463;-76
2022/02/02 06:42:43;;;;;;;11.53;2.83;;;7.10;99.90;;;;;;2610408;54;20966;-75
2022/02/02 06:45:11;;;;;;;8.17;3.27;;;7.20;99.90;;;;;;2610273;54;20430;-75
2022/02/02 06:47:39;;;;;;;9.73;3.67;;;7.20;99.90;;;;;;2609441;47;20403;-76
2022/02/02 06:50:28;;;;;;;5.37;2.27;;;7.20;99.90;;;;;;2610895;54;20416;-75
2022/02/02 06:55:49;;;;;;;12.93;3.67;;;7.20;99.90;;;;;;2609742;54;20411;-75
2022/02/02 06:59:02;;;;;;;10.23;3.63;;;7.20;99.90;;;;;;2609640;47;20480;-75
2022/02/02 07:13:37;;;;;;;21.93;5.03;;;6.70;99.90;;;;;;2609329;54;20535;-76
2022/02/02 07:19:05;;;;;;;8.23;2.70;;;6.60;99.90;;;;;;2609970;47;20432;-76
2022/02/02 07:35:05;;;;;;;20.97;5.13;;;6.60;99.90;;;;;;2608904;54;20394;-77
2022/02/02 07:37:37;;;;;;;24.20;4.93;;;6.60;99.90;;;;;;2608479;54;20451;-75
2022/02/02 07:40:07;;;;;;;24.00;5.33;;;6.70;99.90;;;;;;2608678;54;21216;-75
2022/02/02 07:42:33;;;;;;;19.57;4.97;;;6.70;99.90;;;;;;2607352;47;20418;-75
2022/02/02 07:45:07;;;;;;;17.73;5.90;;;6.80;99.90;;;;;;2609253;54;20949;-75
2022/02/02 07:47:38;;;;;;;14.40;5.30;;;6.90;99.90;;;;;;2609702;54;20383;-75
2022/02/02 07:50:07;;;;;;;18.27;4.70;;;6.90;99.90;;;;;;2610071;54;20419;-75
2022/02/02 07:52:34;;;;;;;20.97;6.53;;;6.90;99.90;;;;;;2609454;39;20720;-75
2022/02/02 07:55:02;;;;;;;14.40;4.77;;;6.90;99.90;;;;;;2606947;54;20444;-76
2022/02/02 07:57:29;;;;;;;15.60;5.03;;;6.90;99.90;;;;;;2608300;47;20479;-75
2022/02/02 07:59:59;;;;;;;25.50;6.23;;;6.80;99.90;;;;;;2610322;54;20419;-75
2022/02/02 08:05:06;;;;;;;19.50;5.60;;;6.90;99.90;;;;;;2610182;47;20423;-76
2022/02/02 08:07:40;;;;;;;17.57;6.00;;;7.00;99.90;;;;;;2610026;54;20419;-76
2022/02/02 08:12:43;;;;;;;28.17;5.07;;;7.00;99.90;;;;;;2611236;39;20885;-76
2022/02/02 08:15:11;;;;;;;14.50;4.90;;;7.00;99.90;;;;;;2610120;54;20395;-77
2022/02/02 08:17:38;;;;;;;21.47;5.27;;;7.00;99.90;;;;;;2611037;54;20416;-76
2022/02/02 08:20:05;;;;;;;24.73;6.67;;;7.10;99.90;;;;;;2610367;39;22671;-76
2022/02/02 08:22:31;;;;;;;21.63;7.20;;;7.20;99.90;;;;;;2610304;54;20405;-77
2022/02/02 08:24:57;;;;;;;20.07;5.50;;;7.30;99.90;;;;;;2610483;54;20949;-76
2022/02/02 08:27:23;;;;;;;22.10;6.10;;;7.50;99.90;;;;;;2610791;54;21024;-76
2022/02/02 08:29:49;;;;;;;27.63;6.40;;;7.50;99.90;;;;;;2610587;54;20486;-76
2022/02/02 08:32:15;;;;;;;30.80;7.13;;;7.50;99.90;;;;;;2610697;54;20476;-76
2022/02/02 08:34:46;;;;;;;26.43;6.17;;;7.70;99.90;;;;;;2610777;54;20720;-76
2022/02/02 08:37:12;;;;;;;20.10;5.30;;;7.90;99.90;;;;;;2610991;46;20486;-75
2022/02/02 08:42:06;;;;;;;19.23;6.20;;;9.30;99.90;;;;;;2614007;47;20166;-76
2022/02/02 08:45:00;;;;;;;5.93;3.27;;;9.10;99.90;;;;;;2610549;54;20182;-76
2022/02/02 08:47:26;;;;;;;11.33;4.90;;;8.80;99.90;;;;;;2612041;54;20418;-76
2022/02/02 08:49:57;;;;;;;19.00;6.13;;;8.60;99.90;;;;;;2611049;54;20395;-76
2022/02/02 08:52:32;;;;;;;19.77;7.60;;;8.40;99.90;;;;;;2611460;54;20831;-76
2022/02/02 08:55:04;;;;;;;17.90;4.67;;;8.40;99.90;;;;;;2610452;47;20435;-76
2022/02/02 08:58:07;;;;;;;21.77;6.03;;;8.30;99.90;;;;;;2611459;31;20838;-76
2022/02/02 09:00:35;;;;;;;20.67;5.23;;;8.40;99.90;;;;;;2610325;39;20826;-76
2022/02/02 09:05:45;;;;;;;9.87;4.10;;;8.40;99.90;;;;;;2612433;39;20821;-76
2022/02/02 09:08:11;;;;;;;21.77;5.40;;;8.10;99.90;;;;;;2610730;54;20399;-76
2022/02/02 09:34:57;;;;;;;19.57;5.13;;;8.60;99.90;;;;;;2609659;39;20926;-76
2022/02/02 09:37:24;;;;;;;21.07;6.10;;;8.60;99.90;;;;;;2610654;54;21611;-76
2022/02/02 09:40:02;;;;;;;24.70;7.10;;;8.50;99.90;;;;;;2608934;39;20938;-76
2022/02/02 09:42:32;;;;;;;15.83;5.60;;;8.50;99.90;;;;;;2609447;54;20411;-77
2022/02/02 09:45:02;;;;;;;6.70;3.30;;;8.60;99.90;;;;;;2608685;47;20458;-76
2022/02/02 09:47:34;;;;;;;9.13;4.43;;;8.50;99.90;;;;;;2610449;39;20844;-76
2022/02/02 09:50:17;;;;;;;23.27;6.93;;;8.30;99.90;;;;;;2609863;54;20464;-75
2022/02/02 09:52:51;;;;;;;24.37;5.57;;;8.40;99.90;;;;;;2610059;54;20414;-75
2022/02/02 09:55:32;;;;;;;15.53;7.10;;;8.50;99.90;;;;;;2609586;39;20939;-75
2022/02/02 10:01:00;;;;;;;26.83;6.37;;;8.50;99.90;;;;;;2609666;47;20414;-76
2022/02/02 10:03:52;;;;;;;23.63;5.40;;;8.40;99.90;;;;;;2609556;54;20524;-75
2022/02/02 10:06:41;;;;;;;26.93;10.30;;;8.30;99.90;;;;;;2611902;54;20430;-75
2022/02/02 10:09:49;;;;;;;15.03;7.43;;;8.40;99.90;;;;;;2610457;39;20863;-75
2022/02/02 10:12:44;;;;;;;33.17;7.90;;;8.40;99.90;;;;;;2610611;54;20430;-75
2022/02/02 10:15:24;;;;;;;19.10;5.53;;;8.90;99.90;;;;;;2610806;46;20874;-77
2022/02/02 10:17:57;;;;;;;28.57;13.30;;;8.60;99.90;;;;;;2610455;54;20406;-76
2022/02/02 10:20:26;;;;;;;23.60;6.37;;;8.80;99.90;;;;;;2610151;39;21063;-76
2022/02/02 10:22:56;;;;;;;22.20;7.30;;;8.70;99.90;;;;;;2611649;54;20450;-76
2022/02/02 10:25:24;;;;;;;24.50;7.20;;;9.00;99.90;;;;;;2609514;46;20426;-76
2022/02/02 10:27:50;;;;;;;16.43;5.03;;;9.00;99.90;;;;;;2612013;54;20427;-75
2022/02/02 10:30:19;;;;;;;17.10;5.33;;;9.10;99.90;;;;;;2611659;54;20427;-75
2022/02/02 10:32:47;;;;;;;20.23;6.90;;;9.60;99.90;;;;;;2611142;54;20376;-76
2022/02/02 10:35:38;;;;;;;11.50;4.20;;;9.60;99.90;;;;;;2609820;46;20431;-76
2022/02/02 10:38:18;;;;;;;19.90;4.93;;;10.40;99.90;;;;;;2611660;54;20523;-77
2022/02/02 10:43:23;;;;;;;22.67;5.30;;;10.00;99.90;;;;;;2609636;51;20483;-76
2022/02/02 10:45:49;;;;;;;21.70;5.77;;;10.00;99.90;;;;;;2610710;47;20431;-76
2022/02/02 10:48:31;;;;;;;21.50;7.30;;;9.70;99.90;;;;;;2609947;54;20431;-77
2022/02/02 10:51:05;;;;;;;18.43;5.30;;;9.50;99.90;;;;;;2610577;54;20431;-75
2022/02/02 10:53:48;;;;;;;19.03;6.17;;;9.60;99.90;;;;;;2611174;54;20416;-75
2022/02/02 10:56:29;;;;;;;10.17;4.30;;;9.60;99.90;;;;;;2611561;54;21020;-76
2022/02/02 10:59:20;;;;;;;19.57;5.80;;;9.60;99.90;;;;;;2609577;54;20438;-76
2022/02/02 11:06:34;;;;;;;15.30;4.60;;;9.40;99.90;;;;;;2610386;47;20432;-76
2022/02/02 11:07:18;;;;;;;26.83;6.70;;;9.60;99.90;;;;;;2611019;54;20417;-76
2022/02/02 11:09:48;;;;;;;21.77;5.10;;;9.70;99.90;;;;;;2610051;54;20499;-75
2022/02/02 11:12:16;;;;;;;16.00;4.63;;;9.80;99.90;;;;;;2610609;47;20436;-77
2022/02/02 11:15:02;;;;;;;19.37;4.03;;;10.10;99.90;;;;;;2610777;54;21045;-76
2022/02/02 11:18:01;;;;;;;15.40;4.77;;;9.90;99.90;;;;;;2609695;54;20948;-76
2022/02/02 11:20:27;;;;;;;9.73;3.80;;;9.50;99.90;;;;;;2610787;54;20851;-79
2022/02/02 11:23:00;;;;;;;18.90;5.90;;;10.10;99.90;;;;;;2610842;54;20391;-76
2022/02/02 11:25:33;;;;;;;15.97;5.50;;;9.70;99.90;;;;;;2610160;39;20914;-76
2022/02/02 11:28:01;;;;;;;15.77;3.90;;;10.10;99.90;;;;;;2610459;54;20499;-76
2022/02/02 11:30:27;;;;;;;14.97;3.70;;;10.00;99.90;;;;;;2609508;47;20511;-76
2022/02/02 11:33:19;;;;;;;25.80;5.43;;;10.00;99.90;;;;;;2610181;47;21102;-75
2022/02/02 11:35:47;;;;;;;15.13;5.03;;;9.80;99.90;;;;;;2609991;54;20408;-76
2022/02/02 11:38:24;;;;;;;16.30;5.57;;;10.40;99.90;;;;;;2611817;39;20961;-76
2022/02/02 11:41:14;;;;;;;9.37;4.30;;;11.40;99.90;;;;;;2611708;54;20481;-76
2022/02/02 11:46:48;;;;;;;14.07;3.40;;;11.40;99.90;;;;;;2610115;54;20406;-75
2022/02/02 11:49:21;;;;;;;8.77;3.77;;;10.50;99.90;;;;;;2610271;47;20431;-76
2022/02/02 11:51:48;;;;;;;11.50;3.30;;;9.90;99.90;;;;;;2608962;54;20427;-75
2022/02/02 11:54:16;;;;;;;9.20;3.87;;;9.90;99.90;;;;;;2610763;54;20392;-75
2022/02/02 11:57:04;;;;;;;12.90;4.13;;;9.70;99.90;;;;;;2627961;36;21056;-75
2022/02/02 12:00:09;;;;;;;9.10;3.43;;;9.50;99.90;;;;;;2610496;54;20435;-75
2022/02/02 12:05:36;;;;;;;15.00;7.13;;;9.70;99.90;;;;;;2610796;54;20421;-76
2022/02/02 12:36:01;;;;;;;18.80;8.80;;;9.90;99.90;;;;;;2611102;54;20463;-76
2022/02/02 12:49:25;;;;;;;29.50;7.63;;;10.10;99.90;;;;;;2610498;54;20414;-75
2022/02/02 12:57:12;;;;;;;23.77;8.00;;;10.30;99.90;;;;;;2610097;47;20461;-76
2022/02/02 13:02:14;;;;;;;12.07;4.30;;;11.10;99.90;;;;;;2609277;54;20423;-75
2022/02/02 13:04:43;;;;;;;18.17;5.43;;;10.40;99.90;;;;;;2610841;39;21503;-75
2022/02/02 13:07:11;;;;;;;12.23;4.80;;;9.90;99.90;;;;;;2612737;54;20983;-75
2022/02/02 13:09:38;;;;;;;19.27;6.30;;;9.80;99.90;;;;;;2609933;47;20471;-75
2022/02/02 13:12:28;;;;;;;21.93;5.87;;;9.80;99.90;;;;;;2609953;54;20412;-76
2022/02/02 13:23:18;;;;;;;81.67;62.23;;;10.30;99.90;;;;;;2610603;47;20442;-76
2022/02/02 13:25:50;;;;;;;14.03;6.60;;;10.80;99.90;;;;;;2611388;54;20429;-75
2022/02/02 13:29:02;;;;;;;19.00;5.33;;;10.50;99.90;;;;;;2609767;50;20940;-76
2022/02/02 13:31:50;;;;;;;18.83;5.53;;;10.00;99.90;;;;;;2609057;54;20415;-76
2022/02/02 13:34:38;;;;;;;16.63;4.70;;;9.70;99.90;;;;;;2610782;54;20410;-76
2022/02/02 13:37:41;;;;;;;19.27;4.70;;;9.60;99.90;;;;;;2610486;54;20441;-76
2022/02/02 13:48:17;;;;;;;25.40;5.10;;;9.60;99.90;;;;;;2610855;47;20451;-76
2022/02/02 13:51:13;;;;;;;13.43;6.07;;;9.50;99.90;;;;;;2610474;47;20498;-77
2022/02/02 14:01:44;;;;;;;10.97;4.60;;;12.90;99.90;;;;;;2609807;47;20444;-76
2022/02/02 14:07:10;;;;;;;9.67;3.03;;;11.80;99.90;;;;;;2611545;39;20988;-76
2022/02/02 14:09:59;;;;;;;19.83;4.47;;;12.60;99.90;;;;;;2610671;51;20447;-76
2022/02/02 14:31:36;;;;;;;13.67;3.93;;;14.80;76.70;;;;;;2610478;54;20412;-76
2022/02/02 14:34:03;;;;;;;10.93;4.67;;;14.00;91.60;;;;;;2611296;54;20416;-76
2022/02/02 14:36:36;;;;;;;16.37;5.27;;;14.80;72.50;;;;;;2612052;54;20416;-76
2022/02/02 14:44:12;;;;;;;17.83;4.00;;;15.90;54.20;;;;;;2611020;54;20520;-77
2022/02/02 14:49:27;;;;;;;16.17;5.60;;;14.80;69.80;;;;;;2609258;54;20408;-76
2022/02/02 14:55:11;;;;;;;17.70;6.03;;;13.80;86.30;;;;;;2607460;47;20427;-76
2022/02/02 15:09:36;;;;;;;11.90;4.13;;;10.90;99.90;;;;;;2610626;54;20539;-75
2022/02/02 15:23:53;;;;;;;10.53;4.60;;;10.50;99.90;;;;;;2611556;54;20414;-75
2022/02/02 15:28:10;;;;;;;20.53;5.20;;;10.20;99.90;;;;;;2611221;39;20780;-76
2022/02/02 15:31:09;;;;;;;17.23;6.43;;;10.10;99.90;;;;;;2610175;54;20423;-76
2022/02/02 15:33:31;;;;;;;14.27;5.07;;;10.30;99.90;;;;;;2608992;54;20438;-75
2022/02/02 15:36:14;;;;;;;14.77;6.50;;;10.30;99.90;;;;;;2610058;54;20900;-75
2022/02/02 15:38:40;;;;;;;18.97;5.50;;;10.50;99.90;;;;;;2608964;54;20412;-76
2022/02/02 15:41:14;;;;;;;16.33;5.13;;;10.50;99.90;;;;;;2609309;54;20511;-75
2022/02/02 16:02:09;;;;;;;20.03;5.20;;;9.30;99.90;;;;;;2609037;47;20519;-75
2022/02/02 16:04:36;;;;;;;18.67;4.80;;;9.10;99.90;;;;;;2609608;51;20813;-76
2022/02/02 16:07:05;;;;;;;20.27;5.97;;;9.00;99.90;;;;;;2610878;54;20460;-76
2022/02/02 16:09:47;;;;;;;16.73;4.70;;;9.00;99.90;;;;;;2608248;47;20454;-76
2022/02/02 16:12:27;;;;;;;11.93;5.73;;;8.90;99.90;;;;;;2609224;39;20847;-76
2022/02/02 16:15:16;;;;;;;16.60;5.73;;;8.80;99.90;;;;;;2608619;54;20417;-76
2022/02/02 16:39:08;;;;;;;18.17;5.83;;;8.90;99.90;;;;;;2612328;54;20466;-75
2022/02/02 16:44:18;;;;;;;15.40;6.63;;;8.40;99.90;;;;;;2607867;47;20956;-75
2022/02/02 16:46:45;;;;;;;23.73;7.00;;;8.20;99.90;;;;;;2610099;47;20423;-76
2022/02/02 16:49:11;;;;;;;17.07;7.77;;;8.30;99.90;;;;;;2609564;54;20419;-76
2022/02/02 16:51:38;;;;;;;15.10;7.63;;;8.50;99.90;;;;;;2607509;54;20980;-76
2022/02/02 16:54:07;;;;;;;23.97;7.40;;;8.60;99.90;;;;;;2610064;47;20431;-76
2022/02/02 17:30:14;;;;;;;24.87;9.93;;;7.80;99.90;;;;;;2607627;39;21002;-76
2022/02/02 17:32:55;;;;;;;27.27;9.20;;;8.00;99.90;;;;;;2608069;47;20419;-75
2022/02/02 17:35:36;;;;;;;32.37;9.60;;;8.20;99.90;;;;;;2607873;54;20519;-76
2022/02/02 17:38:16;;;;;;;24.50;10.20;;;8.10;99.90;;;;;;2610168;54;20419;-76
2022/02/02 17:40:58;;;;;;;35.90;16.37;;;8.00;99.90;;;;;;2610095;54;20415;-76
2022/02/02 17:44:04;;;;;;;26.67;15.80;;;7.90;99.90;;;;;;2609987;54;20408;-76
2022/02/02 18:19:09;;;;;;;38.80;15.90;;;7.50;99.90;;;;;;2611469;54;20988;-76
2022/02/02 18:21:36;;;;;;;47.67;20.00;;;7.60;99.90;;;;;;2610222;47;20465;-76
2022/02/02 18:29:43;;;;;;;60.70;18.07;;;7.80;99.90;;;;;;2610958;54;20944;-78
2022/02/02 18:32:41;;;;;;;60.07;21.60;;;7.90;99.90;;;;;;2611306;54;20159;-76
2022/02/02 18:35:13;;;;;;;40.13;16.53;;;8.30;99.90;;;;;;2610120;54;20436;-78
2022/02/02 18:43:32;;;;;;;38.53;16.70;;;8.00;99.90;;;;;;2609912;54;20411;-77
2022/02/02 18:52:17;;;;;;;19.37;11.03;;;7.70;99.90;;;;;;2610631;47;20487;-76
2022/02/02 18:57:20;;;;;;;22.50;11.40;;;8.00;99.90;;;;;;2609153;47;20522;-77
2022/02/02 19:00:07;;;;;;;21.63;9.17;;;8.10;99.90;;;;;;2625613;36;20438;-76
2022/02/02 19:39:11;;;;;;;25.97;11.47;;;8.00;99.90;;;;;;2610941;54;20427;-76
2022/02/02 19:57:22;;;;;;;17.27;9.00;;;9.00;99.90;;;;;;2610002;54;20966;-76
2022/02/02 20:02:57;;;;;;;20.30;8.00;;;9.10;99.90;;;;;;2610516;54;20459;-75
2022/02/02 20:10:38;;;;;;;19.80;8.90;;;8.80;99.90;;;;;;2609695;54;20444;-77
2022/02/02 20:13:03;;;;;;;28.87;9.50;;;8.90;99.90;;;;;;2609441;54;20503;-75
2022/02/02 20:15:33;;;;;;;29.70;10.40;;;8.70;99.90;;;;;;2609768;54;20399;-76
2022/02/02 20:18:02;;;;;;;21.70;10.20;;;8.60;99.90;;;;;;2609611;54;20158;-76
2022/02/02 20:20:28;;;;;;;27.13;10.30;;;8.90;99.90;;;;;;2613157;31;20871;-76
2022/02/02 20:22:54;;;;;;;15.17;9.10;;;8.60;99.90;;;;;;2612650;39;21358;-76
2022/02/02 20:25:19;;;;;;;19.07;8.23;;;8.80;99.90;;;;;;2609077;39;20829;-76
2022/02/02 20:27:53;;;;;;;19.00;8.10;;;8.70;99.90;;;;;;2611594;54;20498;-76
2022/02/02 20:30:20;;;;;;;25.30;9.57;;;8.40;99.90;;;;;;2610093;51;20167;-79
2022/02/02 20:32:47;;;;;;;24.90;9.80;;;8.30;99.90;;;;;;2611799;54;20970;-76
2022/02/02 20:35:13;;;;;;;27.93;10.13;;;8.40;99.90;;;;;;2612585;54;20481;-76
2022/02/02 20:37:38;;;;;;;21.33;8.57;;;8.40;99.90;;;;;;2610040;54;20395;-77
2022/02/02 20:40:07;;;;;;;17.33;9.83;;;8.40;99.90;;;;;;2611166;54;20178;-76
2022/02/02 21:09:54;;;;;;;22.87;9.70;;;8.90;99.90;;;;;;2609438;54;20959;-77
2022/02/02 21:14:44;;;;;;;16.70;10.50;;;8.40;99.90;;;;;;2611417;54;20967;-75
2022/02/02 21:17:19;;;;;;;30.53;10.73;;;8.30;99.90;;;;;;2613370;47;20439;-75
2022/02/02 21:19:55;;;;;;;27.80;11.87;;;8.40;99.90;;;;;;2611147;54;20426;-76
2022/02/02 21:22:23;;;;;;;20.80;12.87;;;8.70;99.90;;;;;;2614053;54;21337;-76
2022/02/02 21:25:09;;;;;;;18.03;10.60;;;8.50;99.90;;;;;;2611977;39;21388;-75
2022/02/02 21:27:41;;;;;;;27.43;11.43;;;8.50;99.90;;;;;;2611210;46;20528;-76
2022/02/02 21:30:10;;;;;;;26.30;13.00;;;8.50;99.90;;;;;;2611505;46;20444;-75
2022/02/02 21:32:36;;;;;;;31.33;15.23;;;8.70;99.90;;;;;;2611793;54;20416;-76
2022/02/02 21:35:07;;;;;;;22.90;14.20;;;8.60;99.90;;;;;;2608543;47;20415;-76
2022/02/02 21:37:35;;;;;;;36.03;14.80;;;8.70;99.90;;;;;;2611213;39;20520;-75
2022/02/02 21:40:18;;;;;;;23.87;14.70;;;8.70;99.90;;;;;;2610289;39;20881;-75
2022/02/02 21:42:49;;;;;;;30.73;16.27;;;8.80;99.90;;;;;;2610601;54;21017;-75
2022/02/02 21:45:16;;;;;;;35.50;16.97;;;8.90;99.90;;;;;;2612333;39;20922;-76
2022/02/02 21:47:42;;;;;;;30.80;16.60;;;8.70;99.90;;;;;;2611253;54;20399;-76
2022/02/02 21:50:12;;;;;;;28.33;16.00;;;8.80;99.90;;;;;;2609243;54;20454;-76
2022/02/02 21:52:39;;;;;;;25.77;17.33;;;8.60;99.90;;;;;;2607959;54;20194;-76
2022/02/02 21:55:06;;;;;;;29.07;13.53;;;8.50;99.90;;;;;;2605728;54;20395;-76
2022/02/02 21:57:32;;;;;;;29.63;17.10;;;8.50;99.90;;;;;;2610147;47;20459;-77
2022/02/02 21:59:58;;;;;;;32.80;17.90;;;8.40;99.90;;;;;;2610216;54;20422;-75
2022/02/02 22:02:24;;;;;;;37.63;16.10;;;8.30;99.90;;;;;;2606736;54;20396;-76
2022/02/02 22:04:49;;;;;;;29.27;16.20;;;8.20;99.90;;;;;;2610576;54;20175;-76
2022/02/02 22:07:15;;;;;;;31.27;17.80;;;8.30;99.90;;;;;;2608057;54;20147;-76
2022/02/02 22:09:44;;;;;;;35.67;18.00;;;8.80;99.90;;;;;;2608375;54;20694;-76
2022/02/02 22:12:12;;;;;;;33.50;20.23;;;9.00;99.90;;;;;;2608883;47;20432;-76
2022/02/02 22:14:38;;;;;;;32.30;19.40;;;8.80;99.90;;;;;;2609511;54;20475;-76
2022/02/02 22:17:05;;;;;;;28.30;19.07;;;8.90;99.90;;;;;;2608747;47;21715;-76
2022/02/02 22:19:31;;;;;;;30.73;20.17;;;8.80;99.90;;;;;;2624063;36;20490;-76
2022/02/02 22:21:57;;;;;;;33.03;18.70;;;8.70;99.90;;;;;;2606320;47;20435;-77
2022/02/02 22:24:23;;;;;;;34.73;20.07;;;8.60;99.90;;;;;;2607440;31;20883;-77
2022/02/02 22:26:49;;;;;;;35.80;21.03;;;8.40;99.90;;;;;;2607748;54;20154;-76
2022/02/02 22:29:15;;;;;;;32.87;20.07;;;8.40;99.90;;;;;;2608387;39;20557;-77
2022/02/02 22:31:41;;;;;;;37.67;22.63;;;8.40;99.90;;;;;;2610309;54;20448;-76
2022/02/02 22:34:07;;;;;;;43.17;22.83;;;8.50;99.90;;;;;;2609045;54;20143;-76
2022/02/02 22:36:33;;;;;;;38.93;22.80;;;8.30;99.90;;;;;;2612886;47;20439;-76
2022/02/02 22:38:59;;;;;;;40.83;22.23;;;8.20;99.90;;;;;;2612985;54;20431;-79
2022/02/02 22:41:25;;;;;;;39.83;22.03;;;8.30;99.90;;;;;;2610360;47;20208;-76
2022/02/02 22:43:53;;;;;;;39.23;22.67;;;8.30;99.90;;;;;;2610814;47;20441;-77
2022/02/02 22:46:24;;;;;;;37.03;23.03;;;8.30;99.90;;;;;;2613782;47;20415;-77
2022/02/02 22:48:50;;;;;;;31.97;18.67;;;8.50;99.90;;;;;;2611361;47;20424;-77
2022/02/02 22:51:16;;;;;;;35.87;20.97;;;8.40;99.90;;;;;;2610083;54;20521;-76
2022/02/02 22:53:42;;;;;;;44.50;22.10;;;8.40;99.90;;;;;;2613554;54;20238;-75
2022/02/02 22:56:07;;;;;;;33.17;18.23;;;8.40;99.90;;;;;;2613335;39;20781;-77
2022/02/02 22:58:34;;;;;;;37.53;23.67;;;8.50;99.90;;;;;;2615532;54;20407;-76
2022/02/02 23:01:00;;;;;;;40.63;21.70;;;8.70;99.90;;;;;;2614003;47;20266;-75
2022/02/02 23:03:28;;;;;;;37.30;21.87;;;8.90;99.90;;;;;;2614294;54;20943;-76
2022/02/02 23:06:00;;;;;;;39.27;22.60;;;8.70;99.90;;;;;;2613720;47;20435;-75
2022/02/02 23:08:28;;;;;;;41.77;21.97;;;8.90;99.90;;;;;;2607666;54;20420;-76
2022/02/02 23:10:54;;;;;;;41.20;22.87;;;8.70;99.90;;;;;;2605323;54;20459;-75
2022/02/02 23:13:20;;;;;;;37.50;22.07;;;8.50;99.90;;;;;;2605405;39;21667;-77
2022/02/02 23:15:55;;;;;;;34.23;18.13;;;8.50;99.90;;;;;;2606609;47;20955;-77
2022/02/02 23:18:24;;;;;;;37.77;21.50;;;8.50;99.90;;;;;;2605693;47;21297;-77
2022/02/02 23:20:55;;;;;;;34.37;20.10;;;8.50;99.90;;;;;;2610614;54;20456;-76
2022/02/02 23:23:24;;;;;;;35.80;21.17;;;8.40;99.90;;;;;;2611834;39;20815;-76
2022/02/02 23:25:51;;;;;;;40.33;22.97;;;8.50;99.90;;;;;;2610322;47;20451;-77
2022/02/02 23:28:24;;;;;;;37.43;22.10;;;8.70;99.90;;;;;;2610831;54;20388;-77
2022/02/02 23:30:51;;;;;;;32.53;20.87;;;8.90;99.90;;;;;;2610971;31;20888;-77
2022/02/02 23:33:18;;;;;;;34.23;21.57;;;8.90;99.90;;;;;;2611374;54;20418;-75
2022/02/02 23:35:44;;;;;;;34.57;19.80;;;8.60;99.90;;;;;;2609772;39;21077;-76
2022/02/02 23:38:11;;;;;;;38.00;21.67;;;8.60;99.90;;;;;;2610398;54;20447;-76
2022/02/02 23:43:22;;;;;;;34.23;20.30;;;8.60;99.90;;;;;;2609942;47;20419;-77
2022/02/02 23:45:52;;;;;;;37.60;21.03;;;8.50;99.90;;;;;;2610770;47;20428;-76
2022/02/02 23:48:23;;;;;;;37.77;23.00;;;8.60;99.90;;;;;;2611013;39;20806;-76